Grenville, South Dakota
Current Conditions -  °F | °C
As of 3:53 PM on Friday 31 Oct 2014 (Local Time) from KATY Reporting Station
Clear Clear  
Wind Chill: 33°   Ceiling: Unl
Heat Index: 38°   Visibility: 10mi
Dew Point: 18°   Wind: 7mph
Humidity: 44%   Direction: 150°SSE
Pressure: 30.44"   Gusts: NA
Location:  45.47°N, 97.39°W
Report Text: KATY 312053Z AUTO 15006KT 10SM CLR 03/M08 A3044 RMK AO2 SLP332 T00331078 56030
Loading
Personal Weather Stations






























Interactive Weather Map
Tropical Storm Tracking
New forecast layout! Learn more

10-Day Weather Forecast

Advertisements
Track Severe Weather on mobile